createdAt,value
2023-01-07T00:01:08.106Z,100.00
2023-01-07T00:04:16.627Z,100.00
2023-01-07T00:07:22.828Z,100.00
2023-01-07T00:10:29.339Z,100.00
2023-01-07T00:13:37.764Z,100.00
2023-01-07T00:16:44.224Z,100.00
2023-01-07T00:19:50.556Z,100.00
2023-01-07T00:22:56.519Z,100.00
2023-01-07T00:26:04.447Z,100.00
2023-01-07T00:29:12.196Z,100.00
2023-01-07T00:32:18.372Z,100.00
2023-01-07T00:35:24.848Z,100.00
2023-01-07T00:38:31.224Z,100.00
2023-01-07T00:41:37.757Z,100.00
2023-01-07T00:44:45.647Z,100.00
2023-01-07T00:47:53.654Z,100.00
2023-01-07T00:51:00.018Z,100.00
2023-01-07T00:54:06.409Z,100.00
2023-01-07T00:57:14.088Z,100.00
2023-01-07T01:00:23.565Z,100.00
2023-01-07T01:03:31.288Z,100.00
2023-01-07T01:06:37.807Z,100.00
2023-01-07T01:09:43.861Z,100.00
2023-01-07T01:12:50.357Z,100.00
2023-01-07T01:15:58.103Z,100.00
2023-01-07T01:19:04.842Z,100.00
2023-01-07T01:22:11.258Z,100.00
2023-01-07T01:25:17.796Z,100.00
2023-01-07T01:28:23.935Z,100.00
2023-01-07T01:31:31.570Z,100.00
2023-01-07T01:34:38.180Z,100.00
2023-01-07T01:37:44.778Z,100.00
2023-01-07T01:40:50.983Z,100.00
2023-01-07T01:43:57.097Z,100.00
2023-01-07T01:47:07.722Z,100.00
2023-01-07T01:50:20.017Z,100.00
2023-01-07T01:53:31.019Z,100.00
2023-01-07T01:56:41.211Z,100.00
2023-01-07T01:59:50.732Z,100.00
2023-01-07T02:03:00.084Z,100.00
2023-01-07T02:06:07.401Z,100.00
2023-01-07T02:09:13.931Z,100.00
2023-01-07T02:12:40.581Z,100.00
2023-01-07T02:15:55.689Z,100.00
2023-01-07T02:19:43.387Z,100.00
2023-01-07T02:23:18.446Z,100.00
2023-01-07T02:26:59.153Z,100.00
2023-01-07T02:30:46.449Z,100.00
2023-01-07T02:34:00.198Z,100.00
2023-01-07T02:37:14.303Z,100.00
2023-01-07T02:40:26.246Z,100.00
2023-01-07T02:43:41.369Z,100.00
2023-01-07T02:46:53.065Z,100.00
2023-01-07T02:50:00.599Z,100.00
2023-01-07T02:53:09.490Z,100.00
2023-01-07T02:56:28.474Z,100.00
2023-01-07T03:00:05.615Z,100.00
2023-01-07T03:03:25.919Z,100.00
2023-01-07T03:06:48.210Z,100.00
2023-01-07T03:10:04.007Z,100.00
2023-01-07T03:13:15.792Z,100.00
2023-01-07T03:16:27.634Z,100.00
2023-01-07T03:19:37.529Z,100.00
2023-01-07T03:22:48.132Z,100.00
2023-01-07T03:25:56.817Z,100.00
2023-01-07T03:29:06.029Z,100.00
2023-01-07T03:32:16.789Z,100.00
2023-01-07T03:35:24.411Z,100.00
2023-01-07T03:38:32.942Z,100.00
2023-01-07T03:42:02.517Z,100.00
2023-01-07T03:45:12.553Z,100.00
2023-01-07T03:48:18.699Z,100.00
2023-01-07T03:51:25.227Z,100.00
2023-01-07T03:54:32.951Z,100.00
2023-01-07T03:57:39.467Z,100.00
2023-01-07T04:00:46.118Z,100.00
2023-01-07T04:03:52.539Z,100.00
2023-01-07T04:06:59.163Z,100.00
2023-01-07T04:10:08.898Z,100.00
2023-01-07T04:13:15.466Z,100.00
2023-01-07T04:16:22.102Z,100.00
2023-01-07T04:19:28.339Z,100.00
2023-01-07T04:22:34.986Z,100.00
2023-01-07T04:25:42.943Z,100.00
2023-01-07T04:28:49.081Z,100.00
2023-01-07T04:31:55.425Z,100.00
2023-01-07T04:35:01.563Z,100.00
2023-01-07T04:38:08.097Z,100.00
2023-01-07T04:41:16.413Z,100.00
2023-01-07T04:44:22.867Z,100.00
2023-01-07T04:47:29.017Z,100.00
2023-01-07T04:50:35.576Z,100.00
2023-01-07T04:53:41.796Z,100.00
2023-01-07T04:56:49.739Z,100.00
2023-01-07T04:59:56.257Z,100.00
2023-01-07T05:03:02.478Z,100.00
2023-01-07T05:06:09.558Z,100.00
2023-01-07T05:09:15.915Z,100.00
2023-01-07T05:12:23.557Z,100.00
2023-01-07T05:15:29.854Z,100.00
2023-01-07T05:18:36.412Z,100.00
2023-01-07T05:21:43.289Z,100.00
2023-01-07T05:24:49.619Z,100.00
2023-01-07T05:27:57.262Z,100.00
2023-01-07T05:31:03.465Z,100.00
2023-01-07T05:34:09.812Z,100.00
2023-01-07T05:37:16.317Z,100.00
2023-01-07T05:40:22.416Z,100.00
2023-01-07T05:43:29.836Z,100.00
2023-01-07T05:46:36.205Z,100.00
2023-01-07T05:49:42.322Z,100.00
2023-01-07T05:52:48.575Z,100.00
2023-01-07T05:55:57.745Z,100.00
2023-01-07T05:59:05.669Z,100.00
2023-01-07T06:02:12.005Z,100.00
2023-01-07T06:05:18.338Z,100.00
2023-01-07T06:08:24.787Z,100.00
2023-01-07T06:11:31.395Z,100.00
2023-01-07T06:14:39.359Z,100.00
2023-01-07T06:17:46.057Z,100.00
2023-01-07T06:20:52.466Z,100.00
2023-01-07T06:23:58.903Z,100.00
2023-01-07T06:27:05.582Z,100.00
2023-01-07T06:30:14.097Z,100.00
2023-01-07T06:33:20.667Z,100.00
2023-01-07T06:36:27.150Z,100.00
2023-01-07T06:39:33.269Z,100.00
2023-01-07T06:42:39.608Z,100.00
2023-01-07T06:45:47.282Z,100.00
2023-01-07T06:48:53.907Z,100.00
2023-01-07T06:52:00.115Z,100.00
2023-01-07T06:55:06.605Z,100.00
2023-01-07T06:58:13.044Z,100.00
2023-01-07T07:01:21.720Z,100.00
2023-01-07T07:04:28.412Z,100.00
2023-01-07T07:07:34.911Z,100.00
2023-01-07T07:10:41.371Z,100.00
2023-01-07T07:13:47.506Z,100.00
2023-01-07T07:16:55.141Z,100.00
2023-01-07T07:20:01.731Z,100.00
2023-01-07T07:23:07.965Z,100.00
2023-01-07T07:26:15.075Z,100.00
2023-01-07T07:29:21.924Z,100.00
2023-01-07T07:32:29.937Z,100.00
2023-01-07T07:35:36.449Z,100.00
2023-01-07T07:38:42.994Z,100.00
2023-01-07T07:41:49.243Z,100.00
2023-01-07T07:44:55.714Z,100.00
2023-01-07T07:48:03.235Z,100.00
2023-01-07T07:51:09.776Z,100.00
2023-01-07T07:54:16.095Z,100.00
2023-01-07T07:57:22.178Z,100.00
2023-01-07T08:00:28.030Z,100.00
2023-01-07T08:03:35.724Z,100.00
2023-01-07T08:06:42.181Z,100.00
2023-01-07T08:09:48.419Z,100.00
2023-01-07T08:12:54.703Z,100.00
2023-01-07T08:16:00.949Z,100.00
2023-01-07T08:19:08.503Z,100.00
2023-01-07T08:22:14.592Z,100.00
2023-01-07T08:25:20.984Z,100.00
2023-01-07T08:28:27.227Z,100.00
2023-01-07T08:31:33.971Z,100.00
2023-01-07T08:34:41.511Z,100.00
2023-01-07T08:37:48.068Z,100.00
2023-01-07T08:40:54.534Z,100.00
2023-01-07T08:44:00.802Z,100.00
2023-01-07T08:47:06.990Z,100.00
2023-01-07T08:50:14.848Z,100.00
2023-01-07T08:53:21.916Z,100.00
2023-01-07T08:56:28.052Z,100.00
2023-01-07T08:59:34.615Z,100.00
2023-01-07T09:02:40.666Z,98.72
2023-01-07T09:05:49.115Z,98.23
2023-01-07T09:08:55.443Z,97.69
2023-01-07T09:12:01.758Z,99.70
2023-01-07T09:15:09.883Z,98.12
2023-01-07T09:18:16.257Z,94.57
2023-01-07T09:21:23.967Z,89.68
2023-01-07T09:24:30.047Z,90.19
2023-01-07T09:27:37.427Z,90.46
2023-01-07T09:30:43.573Z,91.59
2023-01-07T09:33:50.323Z,90.35
2023-01-07T09:36:58.044Z,90.10
2023-01-07T09:40:04.812Z,94.27
2023-01-07T09:43:17.792Z,93.31
2023-01-07T09:46:24.771Z,89.80
2023-01-07T09:49:32.703Z,86.10
2023-01-07T09:52:44.988Z,86.00
2023-01-07T09:56:11.791Z,88.63
2023-01-07T09:59:20.830Z,84.44
2023-01-07T10:02:38.002Z,88.38
2023-01-07T10:05:57.455Z,87.56
2023-01-07T10:09:13.808Z,84.44
2023-01-07T10:12:28.002Z,79.72
2023-01-07T10:15:48.925Z,77.76
2023-01-07T10:19:02.903Z,78.93
2023-01-07T10:22:16.699Z,74.77
2023-01-07T10:25:29.200Z,75.41
2023-01-07T10:28:41.600Z,70.66
2023-01-07T10:31:48.409Z,69.94
2023-01-07T10:34:58.275Z,68.42
2023-01-07T10:38:06.912Z,67.23
2023-01-07T10:41:22.757Z,66.77
2023-01-07T10:44:53.818Z,62.85
2023-01-07T10:48:26.638Z,62.19
2023-01-07T10:51:54.723Z,61.20
2023-01-07T10:55:29.634Z,59.48
2023-01-07T10:58:41.794Z,63.21
2023-01-07T11:01:53.129Z,63.28
2023-01-07T11:05:01.088Z,60.87
2023-01-07T11:08:16.792Z,60.52
2023-01-07T11:11:25.500Z,60.96
2023-01-07T11:14:37.793Z,61.67
2023-01-07T11:17:50.307Z,59.24
2023-01-07T11:20:58.091Z,57.35
2023-01-07T11:24:32.831Z,57.75
2023-01-07T11:27:46.860Z,57.86
2023-01-07T11:31:00.411Z,57.11
2023-01-07T11:34:06.781Z,57.26
2023-01-07T11:37:31.004Z,56.89
2023-01-07T11:40:37.698Z,55.57
2023-01-07T11:43:50.231Z,56.16
2023-01-07T11:46:58.128Z,55.27
2023-01-07T11:50:04.751Z,56.36
2023-01-07T11:53:27.783Z,53.87
2023-01-07T11:56:35.067Z,55.31
2023-01-07T11:59:41.294Z,53.88
2023-01-07T12:03:01.750Z,54.59
2023-01-07T12:06:15.936Z,52.47
2023-01-07T12:09:27.014Z,52.70
2023-01-07T12:12:34.812Z,52.19
2023-01-07T12:15:53.194Z,50.33
2023-01-07T12:19:25.088Z,50.37
2023-01-07T12:22:42.235Z,49.97
2023-01-07T12:25:57.953Z,48.87
2023-01-07T12:29:17.267Z,50.80
2023-01-07T12:32:37.167Z,49.14
2023-01-07T12:35:46.097Z,49.68
2023-01-07T12:38:57.555Z,48.41
2023-01-07T12:42:09.459Z,48.94
2023-01-07T12:45:20.860Z,47.82
2023-01-07T12:48:37.542Z,48.52
2023-01-07T12:51:51.305Z,48.21
2023-01-07T12:55:03.114Z,48.68
2023-01-07T12:58:18.388Z,47.46
2023-01-07T13:01:30.247Z,47.78
2023-01-07T13:04:47.937Z,48.57
2023-01-07T13:08:04.290Z,46.65
2023-01-07T13:11:41.027Z,47.30
2023-01-07T13:14:52.190Z,47.31
2023-01-07T13:18:00.619Z,46.10
2023-01-07T13:21:09.965Z,45.87
2023-01-07T13:24:55.671Z,44.80
2023-01-07T13:28:17.858Z,45.31
2023-01-07T13:31:42.770Z,45.63
2023-01-07T13:35:04.259Z,44.11
2023-01-07T13:38:52.904Z,44.47
2023-01-07T13:42:15.167Z,42.69
2023-01-07T13:45:24.796Z,45.54
2023-01-07T13:48:34.805Z,44.88
2023-01-07T13:51:41.176Z,50.57
2023-01-07T13:54:59.431Z,51.21
2023-01-07T13:58:44.095Z,51.72
2023-01-07T14:02:21.985Z,53.51
2023-01-07T14:05:29.730Z,57.04
2023-01-07T14:08:36.186Z,59.63
2023-01-07T14:11:59.546Z,58.81
2023-01-07T14:15:39.265Z,58.69
2023-01-07T14:19:09.867Z,60.30
2023-01-07T14:22:29.813Z,60.69
2023-01-07T14:25:50.468Z,63.13
2023-01-07T14:29:33.143Z,67.48
2023-01-07T14:32:42.940Z,68.42
2023-01-07T14:36:00.845Z,74.45
2023-01-07T14:39:27.184Z,72.13
2023-01-07T14:42:44.851Z,78.33
2023-01-07T14:45:56.059Z,76.94
2023-01-07T14:49:27.585Z,75.57
2023-01-07T14:53:29.891Z,78.68
2023-01-07T14:56:50.547Z,79.58
2023-01-07T15:00:25.146Z,78.35
2023-01-07T15:04:01.250Z,82.60
2023-01-07T15:07:17.670Z,83.22
2023-01-07T15:10:44.505Z,85.69
2023-01-07T15:14:15.870Z,84.22
2023-01-07T15:17:22.198Z,87.91
2023-01-07T15:20:46.344Z,85.72
2023-01-07T15:24:02.793Z,89.55
2023-01-07T15:27:18.866Z,90.83
2023-01-07T15:30:44.249Z,93.00
2023-01-07T15:34:07.531Z,92.13
2023-01-07T15:37:15.541Z,91.88
2023-01-07T15:40:26.537Z,92.30
2023-01-07T15:43:33.499Z,92.67
2023-01-07T15:46:41.932Z,94.30
2023-01-07T15:49:48.353Z,97.78
2023-01-07T15:52:56.172Z,98.80
2023-01-07T15:56:06.795Z,98.08
2023-01-07T15:59:16.592Z,97.48
2023-01-07T16:02:27.909Z,99.54
2023-01-07T16:05:38.085Z,98.70
2023-01-07T16:08:45.907Z,98.57
2023-01-07T16:11:53.686Z,99.50
2023-01-07T16:15:00.454Z,99.19
2023-01-07T16:18:19.071Z,99.36
2023-01-07T16:21:27.634Z,99.86
2023-01-07T16:24:34.122Z,100.00
2023-01-07T16:27:41.868Z,100.00
2023-01-07T16:30:49.337Z,100.00
2023-01-07T16:33:58.273Z,100.00
2023-01-07T16:37:08.203Z,100.00
2023-01-07T16:40:21.855Z,100.00
2023-01-07T16:43:44.758Z,100.00
2023-01-07T16:47:07.696Z,100.00
2023-01-07T16:50:37.571Z,100.00
2023-01-07T16:53:43.621Z,100.00
2023-01-07T16:56:50.355Z,100.00
2023-01-07T17:00:01.782Z,100.00
2023-01-07T17:03:13.497Z,100.00
2023-01-07T17:06:24.950Z,100.00
2023-01-07T17:09:37.130Z,100.00
2023-01-07T17:12:43.594Z,100.00
2023-01-07T17:15:51.740Z,100.00
2023-01-07T17:18:59.620Z,100.00
2023-01-07T17:22:28.679Z,100.00
2023-01-07T17:25:35.890Z,100.00
2023-01-07T17:28:48.262Z,100.00
2023-01-07T17:31:55.992Z,100.00
2023-01-07T17:35:04.442Z,100.00
2023-01-07T17:38:13.828Z,100.00
2023-01-07T17:41:39.559Z,100.00
2023-01-07T17:44:45.912Z,100.00
2023-01-07T17:47:54.028Z,100.00
2023-01-07T17:51:01.566Z,100.00
2023-01-07T17:54:08.752Z,100.00
2023-01-07T17:57:14.861Z,100.00
2023-01-07T18:00:26.418Z,100.00
2023-01-07T18:03:34.062Z,100.00
2023-01-07T18:06:42.992Z,100.00
2023-01-07T18:09:49.512Z,100.00
2023-01-07T18:12:55.849Z,100.00
2023-01-07T18:16:01.963Z,100.00
2023-01-07T18:19:12.899Z,100.00
2023-01-07T18:22:20.731Z,100.00
2023-01-07T18:25:27.069Z,100.00
2023-01-07T18:28:33.140Z,100.00
2023-01-07T18:31:42.736Z,100.00
2023-01-07T18:34:50.409Z,100.00
2023-01-07T18:37:57.295Z,100.00
2023-01-07T18:41:03.597Z,100.00
2023-01-07T18:44:09.998Z,100.00
2023-01-07T18:47:16.064Z,100.00
2023-01-07T18:50:24.716Z,100.00
2023-01-07T18:53:30.984Z,100.00
2023-01-07T18:56:37.174Z,100.00
2023-01-07T18:59:43.558Z,100.00
2023-01-07T19:02:49.943Z,100.00
2023-01-07T19:05:59.070Z,100.00
2023-01-07T19:09:05.530Z,100.00
2023-01-07T19:12:12.570Z,100.00
2023-01-07T19:15:19.516Z,100.00
2023-01-07T19:18:26.283Z,100.00
2023-01-07T19:21:34.129Z,100.00
2023-01-07T19:24:40.775Z,100.00
2023-01-07T19:27:47.067Z,100.00
2023-01-07T19:30:53.707Z,100.00
2023-01-07T19:34:00.195Z,100.00
2023-01-07T19:37:07.786Z,100.00
2023-01-07T19:40:14.652Z,100.00
2023-01-07T19:43:21.190Z,100.00
2023-01-07T19:46:28.528Z,100.00
2023-01-07T19:49:36.173Z,100.00
2023-01-07T19:52:44.414Z,100.00
2023-01-07T19:55:52.198Z,100.00
2023-01-07T19:58:59.338Z,100.00
2023-01-07T20:02:05.952Z,100.00
2023-01-07T20:05:12.186Z,100.00
2023-01-07T20:08:19.701Z,100.00
2023-01-07T20:11:26.477Z,100.00
2023-01-07T20:14:32.623Z,100.00
2023-01-07T20:17:38.903Z,100.00
2023-01-07T20:20:44.992Z,100.00
2023-01-07T20:23:53.173Z,100.00
2023-01-07T20:26:59.207Z,100.00
2023-01-07T20:30:06.501Z,100.00
2023-01-07T20:33:12.718Z,100.00
2023-01-07T20:36:20.450Z,100.00
2023-01-07T20:39:28.480Z,100.00
2023-01-07T20:42:34.916Z,100.00
2023-01-07T20:45:41.222Z,100.00
2023-01-07T20:48:47.586Z,100.00
2023-01-07T20:51:54.040Z,100.00
2023-01-07T20:55:02.176Z,100.00
2023-01-07T20:58:08.863Z,100.00
2023-01-07T21:01:17.811Z,100.00
2023-01-07T21:04:24.517Z,100.00
2023-01-07T21:07:30.805Z,100.00
2023-01-07T21:10:39.325Z,100.00
2023-01-07T21:13:45.797Z,100.00
2023-01-07T21:16:51.997Z,100.00
2023-01-07T21:19:58.283Z,100.00
2023-01-07T21:23:04.507Z,100.00
2023-01-07T21:26:13.477Z,100.00
2023-01-07T21:29:20.216Z,100.00
2023-01-07T21:32:26.798Z,100.00
2023-01-07T21:35:33.195Z,100.00
2023-01-07T21:38:39.466Z,100.00
2023-01-07T21:41:46.921Z,100.00
2023-01-07T21:44:53.206Z,100.00
2023-01-07T21:47:59.356Z,100.00
2023-01-07T21:51:07.475Z,100.00
2023-01-07T21:54:13.802Z,100.00
2023-01-07T21:57:21.464Z,100.00
2023-01-07T22:00:27.861Z,100.00
2023-01-07T22:03:34.461Z,100.00
2023-01-07T22:06:41.155Z,100.00
2023-01-07T22:09:48.210Z,100.00
2023-01-07T22:12:55.960Z,100.00
2023-01-07T22:16:02.055Z,100.00
2023-01-07T22:19:08.679Z,100.00
2023-01-07T22:22:16.788Z,100.00
2023-01-07T22:25:23.106Z,100.00
2023-01-07T22:28:33.576Z,100.00
2023-01-07T22:31:39.800Z,100.00
2023-01-07T22:34:46.142Z,100.00
2023-01-07T22:37:53.203Z,100.00
2023-01-07T22:41:00.160Z,100.00
2023-01-07T22:44:14.354Z,100.00
2023-01-07T22:47:26.458Z,100.00
2023-01-07T22:50:33.497Z,100.00
2023-01-07T22:53:39.660Z,100.00
2023-01-07T22:56:46.652Z,100.00
2023-01-07T22:59:54.521Z,100.00
2023-01-07T23:03:00.683Z,100.00
2023-01-07T23:06:07.567Z,100.00
2023-01-07T23:09:14.095Z,100.00
2023-01-07T23:12:20.473Z,100.00
2023-01-07T23:15:28.320Z,100.00
2023-01-07T23:18:35.104Z,100.00
2023-01-07T23:21:42.676Z,100.00
2023-01-07T23:24:48.980Z,100.00
2023-01-07T23:27:55.972Z,100.00
2023-01-07T23:31:04.312Z,100.00
2023-01-07T23:34:11.204Z,100.00
2023-01-07T23:37:17.940Z,100.00
2023-01-07T23:40:24.814Z,100.00
2023-01-07T23:43:31.900Z,100.00
2023-01-07T23:46:39.868Z,100.00
2023-01-07T23:49:46.321Z,100.00
2023-01-07T23:52:52.729Z,100.00
2023-01-07T23:56:03.219Z,100.00
2023-01-07T23:59:10.467Z,100.00
